sensor_id;sensor_type;location;lat;lon;timestamp;P1;durP1;ratioP1;P2;durP2;ratioP2
77350;SDS011;66420;50.246;14.320;2023-02-15T00:01:59;39.67;;;18.98;;
77350;SDS011;66420;50.246;14.320;2023-02-15T00:04:44;46.92;;;23.05;;
77350;SDS011;66420;50.246;14.320;2023-02-15T00:07:32;60.75;;;27.65;;
77350;SDS011;66420;50.246;14.320;2023-02-15T00:10:16;63.00;;;26.85;;
77350;SDS011;66420;50.246;14.320;2023-02-15T00:13:02;54.95;;;23.60;;
77350;SDS011;66420;50.246;14.320;2023-02-15T00:15:46;52.08;;;22.38;;
77350;SDS011;66420;50.246;14.320;2023-02-15T00:18:31;58.35;;;25.98;;
77350;SDS011;66420;50.246;14.320;2023-02-15T00:21:16;44.55;;;20.50;;
77350;SDS011;66420;50.246;14.320;2023-02-15T00:24:01;38.30;;;18.20;;
77350;SDS011;66420;50.246;14.320;2023-02-15T00:26:47;34.38;;;17.95;;
77350;SDS011;66420;50.246;14.320;2023-02-15T00:29:31;38.78;;;18.67;;
77350;SDS011;66420;50.246;14.320;2023-02-15T00:32:16;36.33;;;17.58;;
77350;SDS011;66420;50.246;14.320;2023-02-15T00:35:01;37.95;;;18.75;;
77350;SDS011;66420;50.246;14.320;2023-02-15T00:37:46;38.58;;;18.33;;
77350;SDS011;66420;50.246;14.320;2023-02-15T00:40:30;38.60;;;17.48;;
77350;SDS011;66420;50.246;14.320;2023-02-15T00:43:15;51.22;;;23.52;;
77350;SDS011;66420;50.246;14.320;2023-02-15T00:46:00;35.65;;;16.85;;
77350;SDS011;66420;50.246;14.320;2023-02-15T00:48:45;32.83;;;16.63;;
77350;SDS011;66420;50.246;14.320;2023-02-15T00:51:29;37.92;;;17.77;;
77350;SDS011;66420;50.246;14.320;2023-02-15T00:54:15;36.72;;;17.50;;
77350;SDS011;66420;50.246;14.320;2023-02-15T00:57:00;33.05;;;15.73;;
77350;SDS011;66420;50.246;14.320;2023-02-15T00:59:45;31.13;;;14.93;;
77350;SDS011;66420;50.246;14.320;2023-02-15T01:02:29;36.15;;;16.95;;
77350;SDS011;66420;50.246;14.320;2023-02-15T01:05:13;36.50;;;18.38;;
77350;SDS011;66420;50.246;14.320;2023-02-15T01:07:59;40.78;;;18.73;;
77350;SDS011;66420;50.246;14.320;2023-02-15T01:10:43;36.95;;;17.15;;
77350;SDS011;66420;50.246;14.320;2023-02-15T01:13:30;34.03;;;16.40;;
77350;SDS011;66420;50.246;14.320;2023-02-15T01:16:15;35.08;;;15.73;;
77350;SDS011;66420;50.246;14.320;2023-02-15T01:19:00;35.80;;;17.98;;
77350;SDS011;66420;50.246;14.320;2023-02-15T01:21:46;36.30;;;17.60;;
77350;SDS011;66420;50.246;14.320;2023-02-15T01:24:31;38.53;;;18.20;;
77350;SDS011;66420;50.246;14.320;2023-02-15T01:27:16;32.45;;;15.90;;
77350;SDS011;66420;50.246;14.320;2023-02-15T01:30:01;30.13;;;14.63;;
77350;SDS011;66420;50.246;14.320;2023-02-15T01:32:48;39.25;;;18.48;;
77350;SDS011;66420;50.246;14.320;2023-02-15T01:35:32;37.83;;;16.73;;
77350;SDS011;66420;50.246;14.320;2023-02-15T01:38:17;34.05;;;17.25;;
77350;SDS011;66420;50.246;14.320;2023-02-15T01:41:02;37.40;;;17.63;;
77350;SDS011;66420;50.246;14.320;2023-02-15T01:47:40;36.83;;;16.63;;
77350;SDS011;66420;50.246;14.320;2023-02-15T01:53:26;37.53;;;18.15;;
77350;SDS011;66420;50.246;14.320;2023-02-15T01:56:19;36.80;;;17.13;;
77350;SDS011;66420;50.246;14.320;2023-02-15T01:59:09;34.63;;;16.30;;
77350;SDS011;66420;50.246;14.320;2023-02-15T02:01:58;39.88;;;18.50;;
77350;SDS011;66420;50.246;14.320;2023-02-15T02:04:48;42.33;;;19.55;;
77350;SDS011;66420;50.246;14.320;2023-02-15T02:07:36;44.95;;;18.80;;
77350;SDS011;66420;50.246;14.320;2023-02-15T02:10:24;35.55;;;17.20;;
77350;SDS011;66420;50.246;14.320;2023-02-15T02:13:09;44.42;;;20.35;;
77350;SDS011;66420;50.246;14.320;2023-02-15T02:15:58;38.55;;;18.27;;
77350;SDS011;66420;50.246;14.320;2023-02-15T02:18:58;37.22;;;18.27;;
77350;SDS011;66420;50.246;14.320;2023-02-15T02:22:08;38.70;;;18.77;;
77350;SDS011;66420;50.246;14.320;2023-02-15T02:28:20;37.00;;;17.63;;
77350;SDS011;66420;50.246;14.320;2023-02-15T02:34:33;40.35;;;18.48;;
77350;SDS011;66420;50.246;14.320;2023-02-15T02:46:33;40.47;;;18.15;;
77350;SDS011;66420;50.246;14.320;2023-02-15T02:49:31;40.80;;;19.45;;
77350;SDS011;66420;50.246;14.320;2023-02-15T02:55:31;40.30;;;17.35;;
77350;SDS011;66420;50.246;14.320;2023-02-15T02:58:42;40.13;;;18.17;;
77350;SDS011;66420;50.246;14.320;2023-02-15T03:01:34;39.22;;;18.65;;
77350;SDS011;66420;50.246;14.320;2023-02-15T03:04:24;38.33;;;17.80;;
77350;SDS011;66420;50.246;14.320;2023-02-15T03:07:16;39.53;;;17.73;;
77350;SDS011;66420;50.246;14.320;2023-02-15T03:10:06;36.03;;;16.90;;
77350;SDS011;66420;50.246;14.320;2023-02-15T03:12:52;38.95;;;17.88;;
77350;SDS011;66420;50.246;14.320;2023-02-15T03:15:38;39.05;;;17.73;;
77350;SDS011;66420;50.246;14.320;2023-02-15T03:18:48;34.55;;;16.70;;
77350;SDS011;66420;50.246;14.320;2023-02-15T03:21:49;34.08;;;16.50;;
77350;SDS011;66420;50.246;14.320;2023-02-15T03:24:49;39.25;;;18.48;;
77350;SDS011;66420;50.246;14.320;2023-02-15T03:27:41;47.25;;;20.52;;
77350;SDS011;66420;50.246;14.320;2023-02-15T03:30:33;39.65;;;18.67;;
77350;SDS011;66420;50.246;14.320;2023-02-15T03:33:20;36.05;;;17.05;;
77350;SDS011;66420;50.246;14.320;2023-02-15T03:39:22;44.08;;;19.17;;
77350;SDS011;66420;50.246;14.320;2023-02-15T03:42:26;44.00;;;19.48;;
77350;SDS011;66420;50.246;14.320;2023-02-15T03:45:15;44.42;;;20.33;;
77350;SDS011;66420;50.246;14.320;2023-02-15T03:48:05;44.08;;;20.13;;
77350;SDS011;66420;50.246;14.320;2023-02-15T03:50:53;42.83;;;19.60;;
77350;SDS011;66420;50.246;14.320;2023-02-15T03:56:49;42.08;;;20.02;;
77350;SDS011;66420;50.246;14.320;2023-02-15T03:59:53;43.33;;;18.58;;
77350;SDS011;66420;50.246;14.320;2023-02-15T04:06:05;41.10;;;18.45;;
77350;SDS011;66420;50.246;14.320;2023-02-15T04:08:50;43.97;;;19.85;;
77350;SDS011;66420;50.246;14.320;2023-02-15T04:11:54;47.60;;;19.75;;
77350;SDS011;66420;50.246;14.320;2023-02-15T04:14:39;52.83;;;21.55;;
77350;SDS011;66420;50.246;14.320;2023-02-15T04:17:42;46.75;;;19.92;;
77350;SDS011;66420;50.246;14.320;2023-02-15T04:20:26;48.58;;;21.88;;
77350;SDS011;66420;50.246;14.320;2023-02-15T04:23:30;45.42;;;19.83;;
77350;SDS011;66420;50.246;14.320;2023-02-15T04:26:34;45.20;;;19.98;;
77350;SDS011;66420;50.246;14.320;2023-02-15T04:29:19;49.90;;;20.67;;
77350;SDS011;66420;50.246;14.320;2023-02-15T04:32:05;61.33;;;24.50;;
77350;SDS011;66420;50.246;14.320;2023-02-15T04:34:50;59.95;;;24.45;;
77350;SDS011;66420;50.246;14.320;2023-02-15T04:37:35;63.58;;;25.48;;
77350;SDS011;66420;50.246;14.320;2023-02-15T04:40:19;49.92;;;21.17;;
77350;SDS011;66420;50.246;14.320;2023-02-15T04:43:04;54.97;;;23.40;;
77350;SDS011;66420;50.246;14.320;2023-02-15T04:45:49;45.10;;;19.08;;
77350;SDS011;66420;50.246;14.320;2023-02-15T04:48:34;46.92;;;20.88;;
77350;SDS011;66420;50.246;14.320;2023-02-15T04:51:19;51.30;;;21.05;;
77350;SDS011;66420;50.246;14.320;2023-02-15T04:54:03;63.03;;;26.13;;
77350;SDS011;66420;50.246;14.320;2023-02-15T04:56:48;47.78;;;19.77;;
77350;SDS011;66420;50.246;14.320;2023-02-15T04:59:33;50.92;;;20.17;;
77350;SDS011;66420;50.246;14.320;2023-02-15T05:02:17;45.10;;;18.15;;
77350;SDS011;66420;50.246;14.320;2023-02-15T05:05:02;57.22;;;22.60;;
77350;SDS011;66420;50.246;14.320;2023-02-15T05:07:47;44.30;;;18.80;;
77350;SDS011;66420;50.246;14.320;2023-02-15T05:10:32;44.25;;;18.60;;
77350;SDS011;66420;50.246;14.320;2023-02-15T05:13:17;48.17;;;18.48;;
77350;SDS011;66420;50.246;14.320;2023-02-15T05:16:01;47.10;;;19.52;;
77350;SDS011;66420;50.246;14.320;2023-02-15T05:18:46;49.58;;;19.23;;
77350;SDS011;66420;50.246;14.320;2023-02-15T05:21:31;48.83;;;18.02;;
77350;SDS011;66420;50.246;14.320;2023-02-15T05:24:16;49.17;;;18.83;;
77350;SDS011;66420;50.246;14.320;2023-02-15T05:27:19;47.63;;;17.88;;
77350;SDS011;66420;50.246;14.320;2023-02-15T05:30:23;45.35;;;17.52;;
77350;SDS011;66420;50.246;14.320;2023-02-15T05:33:07;42.10;;;18.30;;
77350;SDS011;66420;50.246;14.320;2023-02-15T05:35:52;48.88;;;18.75;;
77350;SDS011;66420;50.246;14.320;2023-02-15T05:38:37;40.00;;;17.45;;
77350;SDS011;66420;50.246;14.320;2023-02-15T05:41:22;47.92;;;19.73;;
77350;SDS011;66420;50.246;14.320;2023-02-15T05:44:08;47.05;;;18.88;;
77350;SDS011;66420;50.246;14.320;2023-02-15T05:46:52;46.50;;;18.98;;
77350;SDS011;66420;50.246;14.320;2023-02-15T05:49:36;50.83;;;20.15;;
77350;SDS011;66420;50.246;14.320;2023-02-15T05:52:21;52.15;;;18.95;;
77350;SDS011;66420;50.246;14.320;2023-02-15T05:55:06;56.75;;;20.95;;
77350;SDS011;66420;50.246;14.320;2023-02-15T05:57:53;48.17;;;19.17;;
77350;SDS011;66420;50.246;14.320;2023-02-15T06:00:37;45.35;;;17.70;;
77350;SDS011;66420;50.246;14.320;2023-02-15T06:03:22;43.72;;;17.83;;
77350;SDS011;66420;50.246;14.320;2023-02-15T06:06:07;46.25;;;19.17;;
77350;SDS011;66420;50.246;14.320;2023-02-15T06:08:52;43.10;;;18.48;;
77350;SDS011;66420;50.246;14.320;2023-02-15T06:11:37;46.45;;;18.40;;
77350;SDS011;66420;50.246;14.320;2023-02-15T06:14:21;49.13;;;18.65;;
77350;SDS011;66420;50.246;14.320;2023-02-15T06:17:07;53.88;;;19.65;;
77350;SDS011;66420;50.246;14.320;2023-02-15T06:19:51;46.33;;;17.98;;
77350;SDS011;66420;50.246;14.320;2023-02-15T06:22:36;43.83;;;17.40;;
77350;SDS011;66420;50.246;14.320;2023-02-15T06:25:20;48.58;;;19.45;;
77350;SDS011;66420;50.246;14.320;2023-02-15T06:28:05;48.60;;;18.52;;
77350;SDS011;66420;50.246;14.320;2023-02-15T06:30:50;44.42;;;18.00;;
77350;SDS011;66420;50.246;14.320;2023-02-15T06:33:35;52.75;;;20.42;;
77350;SDS011;66420;50.246;14.320;2023-02-15T06:36:19;50.40;;;19.92;;
77350;SDS011;66420;50.246;14.320;2023-02-15T06:39:03;66.40;;;22.42;;
77350;SDS011;66420;50.246;14.320;2023-02-15T06:41:48;54.72;;;20.10;;
77350;SDS011;66420;50.246;14.320;2023-02-15T06:44:33;52.50;;;20.52;;
77350;SDS011;66420;50.246;14.320;2023-02-15T06:47:17;53.47;;;21.60;;
77350;SDS011;66420;50.246;14.320;2023-02-15T06:50:02;45.95;;;18.55;;
77350;SDS011;66420;50.246;14.320;2023-02-15T06:52:54;50.00;;;18.65;;
77350;SDS011;66420;50.246;14.320;2023-02-15T06:55:40;63.00;;;22.25;;
77350;SDS011;66420;50.246;14.320;2023-02-15T06:58:25;100.32;;;33.15;;
77350;SDS011;66420;50.246;14.320;2023-02-15T07:01:10;101.88;;;34.85;;
77350;SDS011;66420;50.246;14.320;2023-02-15T07:03:54;66.70;;;22.63;;
77350;SDS011;66420;50.246;14.320;2023-02-15T07:06:38;54.53;;;21.25;;
77350;SDS011;66420;50.246;14.320;2023-02-15T07:09:24;61.60;;;22.20;;
77350;SDS011;66420;50.246;14.320;2023-02-15T07:12:13;57.97;;;19.20;;
77350;SDS011;66420;50.246;14.320;2023-02-15T07:15:19;47.33;;;18.95;;
77350;SDS011;66420;50.246;14.320;2023-02-15T07:18:04;47.80;;;18.13;;
77350;SDS011;66420;50.246;14.320;2023-02-15T07:20:49;56.55;;;19.83;;
77350;SDS011;66420;50.246;14.320;2023-02-15T07:23:34;55.33;;;19.80;;
77350;SDS011;66420;50.246;14.320;2023-02-15T07:26:20;55.03;;;20.30;;
77350;SDS011;66420;50.246;14.320;2023-02-15T07:29:04;52.30;;;18.85;;
77350;SDS011;66420;50.246;14.320;2023-02-15T07:31:49;58.38;;;19.25;;
77350;SDS011;66420;50.246;14.320;2023-02-15T07:34:34;63.20;;;21.58;;
77350;SDS011;66420;50.246;14.320;2023-02-15T07:37:19;58.85;;;22.38;;
77350;SDS011;66420;50.246;14.320;2023-02-15T07:40:03;51.22;;;19.45;;
77350;SDS011;66420;50.246;14.320;2023-02-15T07:42:49;56.08;;;19.85;;
77350;SDS011;66420;50.246;14.320;2023-02-15T07:45:36;57.80;;;23.88;;
77350;SDS011;66420;50.246;14.320;2023-02-15T07:48:21;64.43;;;27.27;;
77350;SDS011;66420;50.246;14.320;2023-02-15T07:51:07;47.10;;;17.90;;
77350;SDS011;66420;50.246;14.320;2023-02-15T07:53:54;57.63;;;19.05;;
77350;SDS011;66420;50.246;14.320;2023-02-15T07:56:39;50.45;;;17.38;;
77350;SDS011;66420;50.246;14.320;2023-02-15T07:59:24;47.35;;;16.40;;
77350;SDS011;66420;50.246;14.320;2023-02-15T08:02:14;50.22;;;17.30;;
77350;SDS011;66420;50.246;14.320;2023-02-15T08:04:59;49.08;;;17.30;;
77350;SDS011;66420;50.246;14.320;2023-02-15T08:07:44;50.85;;;17.30;;
77350;SDS011;66420;50.246;14.320;2023-02-15T08:10:29;56.10;;;20.48;;
77350;SDS011;66420;50.246;14.320;2023-02-15T08:13:32;67.30;;;21.63;;
77350;SDS011;66420;50.246;14.320;2023-02-15T08:16:17;56.53;;;19.02;;
77350;SDS011;66420;50.246;14.320;2023-02-15T08:19:06;67.28;;;23.60;;
77350;SDS011;66420;50.246;14.320;2023-02-15T08:22:02;63.92;;;23.08;;
77350;SDS011;66420;50.246;14.320;2023-02-15T08:24:51;52.63;;;19.38;;
77350;SDS011;66420;50.246;14.320;2023-02-15T08:27:35;51.47;;;18.75;;
77350;SDS011;66420;50.246;14.320;2023-02-15T08:30:20;48.63;;;16.92;;
77350;SDS011;66420;50.246;14.320;2023-02-15T08:33:04;51.42;;;20.25;;
77350;SDS011;66420;50.246;14.320;2023-02-15T08:35:48;54.28;;;17.08;;
77350;SDS011;66420;50.246;14.320;2023-02-15T08:38:33;62.60;;;24.08;;
77350;SDS011;66420;50.246;14.320;2023-02-15T08:41:19;49.08;;;16.95;;
77350;SDS011;66420;50.246;14.320;2023-02-15T08:44:07;49.80;;;19.27;;
77350;SDS011;66420;50.246;14.320;2023-02-15T08:46:52;51.65;;;17.13;;
77350;SDS011;66420;50.246;14.320;2023-02-15T08:49:37;41.50;;;14.98;;
77350;SDS011;66420;50.246;14.320;2023-02-15T08:52:21;42.80;;;15.20;;
77350;SDS011;66420;50.246;14.320;2023-02-15T08:55:06;46.40;;;16.20;;
77350;SDS011;66420;50.246;14.320;2023-02-15T08:57:50;52.13;;;16.88;;
77350;SDS011;66420;50.246;14.320;2023-02-15T09:00:35;44.40;;;17.13;;
77350;SDS011;66420;50.246;14.320;2023-02-15T09:03:19;45.92;;;17.40;;
77350;SDS011;66420;50.246;14.320;2023-02-15T09:06:04;55.65;;;18.80;;
77350;SDS011;66420;50.246;14.320;2023-02-15T09:08:50;51.15;;;19.50;;
77350;SDS011;66420;50.246;14.320;2023-02-15T09:11:36;53.05;;;17.73;;
77350;SDS011;66420;50.246;14.320;2023-02-15T09:14:22;50.08;;;17.65;;
77350;SDS011;66420;50.246;14.320;2023-02-15T09:17:09;47.72;;;16.52;;
77350;SDS011;66420;50.246;14.320;2023-02-15T09:19:54;57.50;;;22.23;;
77350;SDS011;66420;50.246;14.320;2023-02-15T09:22:38;62.97;;;22.85;;
77350;SDS011;66420;50.246;14.320;2023-02-15T09:25:23;57.53;;;21.50;;
77350;SDS011;66420;50.246;14.320;2023-02-15T09:28:08;60.00;;;20.23;;
77350;SDS011;66420;50.246;14.320;2023-02-15T09:30:52;60.22;;;20.63;;
77350;SDS011;66420;50.246;14.320;2023-02-15T09:33:37;57.50;;;17.98;;
77350;SDS011;66420;50.246;14.320;2023-02-15T09:36:27;55.30;;;19.63;;
77350;SDS011;66420;50.246;14.320;2023-02-15T09:39:13;49.15;;;15.95;;
77350;SDS011;66420;50.246;14.320;2023-02-15T09:48:34;52.53;;;17.95;;
77350;SDS011;66420;50.246;14.320;2023-02-15T10:07:29;37.15;;;13.77;;
77350;SDS011;66420;50.246;14.320;2023-02-15T10:10:40;39.15;;;13.77;;
77350;SDS011;66420;50.246;14.320;2023-02-15T10:13:48;60.78;;;21.20;;
77350;SDS011;66420;50.246;14.320;2023-02-15T10:32:35;46.80;;;17.00;;
77350;SDS011;66420;50.246;14.320;2023-02-15T10:38:05;57.13;;;16.52;;
77350;SDS011;66420;50.246;14.320;2023-02-15T10:47:20;51.08;;;20.70;;
77350;SDS011;66420;50.246;14.320;2023-02-15T10:56:32;32.42;;;11.48;;
77350;SDS011;66420;50.246;14.320;2023-02-15T10:59:44;33.65;;;12.93;;
77350;SDS011;66420;50.246;14.320;2023-02-15T11:05:53;35.28;;;14.00;;
77350;SDS011;66420;50.246;14.320;2023-02-15T11:08:43;33.70;;;13.80;;
77350;SDS011;66420;50.246;14.320;2023-02-15T11:11:32;35.45;;;13.05;;
77350;SDS011;66420;50.246;14.320;2023-02-15T11:14:29;32.38;;;11.68;;
77350;SDS011;66420;50.246;14.320;2023-02-15T11:17:36;36.72;;;13.18;;
77350;SDS011;66420;50.246;14.320;2023-02-15T11:20:30;35.35;;;12.13;;
77350;SDS011;66420;50.246;14.320;2023-02-15T11:23:20;40.75;;;16.27;;
77350;SDS011;66420;50.246;14.320;2023-02-15T11:26:09;94.90;;;39.60;;
77350;SDS011;66420;50.246;14.320;2023-02-15T11:29:02;40.20;;;15.23;;
77350;SDS011;66420;50.246;14.320;2023-02-15T11:32:02;39.97;;;14.52;;
77350;SDS011;66420;50.246;14.320;2023-02-15T11:34:51;33.20;;;12.27;;
77350;SDS011;66420;50.246;14.320;2023-02-15T11:40:54;30.60;;;11.57;;
77350;SDS011;66420;50.246;14.320;2023-02-15T11:46:45;35.20;;;14.40;;
77350;SDS011;66420;50.246;14.320;2023-02-15T11:49:34;36.20;;;14.13;;
77350;SDS011;66420;50.246;14.320;2023-02-15T11:52:18;32.05;;;13.38;;
77350;SDS011;66420;50.246;14.320;2023-02-15T11:55:09;33.60;;;13.23;;
77350;SDS011;66420;50.246;14.320;2023-02-15T11:58:04;41.95;;;15.60;;
77350;SDS011;66420;50.246;14.320;2023-02-15T12:00:52;34.80;;;14.73;;
77350;SDS011;66420;50.246;14.320;2023-02-15T12:03:46;34.83;;;13.32;;
77350;SDS011;66420;50.246;14.320;2023-02-15T12:06:34;41.15;;;16.25;;
77350;SDS011;66420;50.246;14.320;2023-02-15T12:09:36;38.03;;;14.60;;
77350;SDS011;66420;50.246;14.320;2023-02-15T12:12:29;36.50;;;14.35;;
77350;SDS011;66420;50.246;14.320;2023-02-15T12:15:16;31.08;;;12.50;;
77350;SDS011;66420;50.246;14.320;2023-02-15T12:18:33;38.05;;;15.27;;
77350;SDS011;66420;50.246;14.320;2023-02-15T12:21:30;39.95;;;16.73;;
77350;SDS011;66420;50.246;14.320;2023-02-15T12:24:19;36.80;;;14.70;;
77350;SDS011;66420;50.246;14.320;2023-02-15T12:27:15;44.00;;;15.88;;
77350;SDS011;66420;50.246;14.320;2023-02-15T12:30:44;45.35;;;15.60;;
77350;SDS011;66420;50.246;14.320;2023-02-15T12:36:15;39.92;;;16.38;;
77350;SDS011;66420;50.246;14.320;2023-02-15T12:41:59;46.40;;;16.38;;
77350;SDS011;66420;50.246;14.320;2023-02-15T12:47:37;41.50;;;16.85;;
77350;SDS011;66420;50.246;14.320;2023-02-15T12:50:22;37.92;;;15.68;;
77350;SDS011;66420;50.246;14.320;2023-02-15T12:53:18;38.78;;;15.70;;
77350;SDS011;66420;50.246;14.320;2023-02-15T12:56:05;46.70;;;15.95;;
77350;SDS011;66420;50.246;14.320;2023-02-15T12:58:52;44.88;;;15.55;;
77350;SDS011;66420;50.246;14.320;2023-02-15T13:01:49;42.45;;;14.82;;
77350;SDS011;66420;50.246;14.320;2023-02-15T13:04:37;35.55;;;13.82;;
77350;SDS011;66420;50.246;14.320;2023-02-15T13:07:35;52.53;;;20.13;;
77350;SDS011;66420;50.246;14.320;2023-02-15T13:10:22;43.33;;;15.45;;
77350;SDS011;66420;50.246;14.320;2023-02-15T13:13:28;40.33;;;14.90;;
77350;SDS011;66420;50.246;14.320;2023-02-15T13:16:15;39.45;;;14.77;;
77350;SDS011;66420;50.246;14.320;2023-02-15T13:19:20;47.72;;;17.75;;
77350;SDS011;66420;50.246;14.320;2023-02-15T13:22:17;43.15;;;14.57;;
77350;SDS011;66420;50.246;14.320;2023-02-15T13:25:24;38.10;;;15.23;;
77350;SDS011;66420;50.246;14.320;2023-02-15T13:28:14;38.10;;;15.27;;
77350;SDS011;66420;50.246;14.320;2023-02-15T13:31:03;46.17;;;16.70;;
77350;SDS011;66420;50.246;14.320;2023-02-15T13:33:51;44.10;;;16.08;;
77350;SDS011;66420;50.246;14.320;2023-02-15T13:40:09;50.13;;;21.45;;
77350;SDS011;66420;50.246;14.320;2023-02-15T13:43:02;39.03;;;15.23;;
77350;SDS011;66420;50.246;14.320;2023-02-15T13:52:25;41.42;;;16.65;;
77350;SDS011;66420;50.246;14.320;2023-02-15T13:55:21;48.35;;;18.65;;
77350;SDS011;66420;50.246;14.320;2023-02-15T14:05:30;46.28;;;15.50;;
77350;SDS011;66420;50.246;14.320;2023-02-15T14:19:48;51.55;;;17.02;;
77350;SDS011;66420;50.246;14.320;2023-02-15T14:22:42;44.28;;;17.95;;
77350;SDS011;66420;50.246;14.320;2023-02-15T14:25:37;48.83;;;18.27;;
77350;SDS011;66420;50.246;14.320;2023-02-15T14:31:34;52.45;;;19.23;;
77350;SDS011;66420;50.246;14.320;2023-02-15T14:37:24;41.05;;;15.23;;
77350;SDS011;66420;50.246;14.320;2023-02-15T14:43:48;41.60;;;16.75;;
77350;SDS011;66420;50.246;14.320;2023-02-15T14:49:55;195.73;;;70.38;;
77350;SDS011;66420;50.246;14.320;2023-02-15T14:53:14;134.05;;;45.83;;
77350;SDS011;66420;50.246;14.320;2023-02-15T15:01:36;44.83;;;16.65;;
77350;SDS011;66420;50.246;14.320;2023-02-15T15:04:27;42.95;;;16.17;;
77350;SDS011;66420;50.246;14.320;2023-02-15T15:07:22;60.85;;;26.13;;
77350;SDS011;66420;50.246;14.320;2023-02-15T15:13:34;71.88;;;32.45;;
77350;SDS011;66420;50.246;14.320;2023-02-15T15:22:32;47.22;;;16.83;;
77350;SDS011;66420;50.246;14.320;2023-02-15T15:31:27;46.75;;;17.02;;
77350;SDS011;66420;50.246;14.320;2023-02-15T15:35:05;36.45;;;15.10;;
77350;SDS011;66420;50.246;14.320;2023-02-15T15:49:56;46.22;;;17.20;;
77350;SDS011;66420;50.246;14.320;2023-02-15T15:52:47;45.85;;;19.35;;
77350;SDS011;66420;50.246;14.320;2023-02-15T15:55:34;56.92;;;24.42;;
77350;SDS011;66420;50.246;14.320;2023-02-15T15:58:19;49.83;;;19.77;;
77350;SDS011;66420;50.246;14.320;2023-02-15T16:01:04;44.72;;;18.40;;
77350;SDS011;66420;50.246;14.320;2023-02-15T16:03:53;60.05;;;23.48;;
77350;SDS011;66420;50.246;14.320;2023-02-15T16:06:40;49.15;;;19.27;;
77350;SDS011;66420;50.246;14.320;2023-02-15T16:09:26;64.68;;;23.50;;
77350;SDS011;66420;50.246;14.320;2023-02-15T16:12:13;56.42;;;21.25;;
77350;SDS011;66420;50.246;14.320;2023-02-15T16:15:02;69.72;;;26.05;;
77350;SDS011;66420;50.246;14.320;2023-02-15T16:17:57;79.68;;;27.20;;
77350;SDS011;66420;50.246;14.320;2023-02-15T16:20:54;82.35;;;28.45;;
77350;SDS011;66420;50.246;14.320;2023-02-15T16:26:41;52.33;;;18.20;;
77350;SDS011;66420;50.246;14.320;2023-02-15T16:29:49;49.85;;;20.00;;
77350;SDS011;66420;50.246;14.320;2023-02-15T16:32:33;46.63;;;17.70;;
77350;SDS011;66420;50.246;14.320;2023-02-15T16:35:20;48.92;;;18.55;;
77350;SDS011;66420;50.246;14.320;2023-02-15T16:38:10;151.10;;;64.32;;
77350;SDS011;66420;50.246;14.320;2023-02-15T16:40:55;78.60;;;28.90;;
77350;SDS011;66420;50.246;14.320;2023-02-15T16:43:42;83.28;;;28.35;;
77350;SDS011;66420;50.246;14.320;2023-02-15T16:46:35;147.30;;;46.60;;
77350;SDS011;66420;50.246;14.320;2023-02-15T16:49:25;299.00;;;86.78;;
77350;SDS011;66420;50.246;14.320;2023-02-15T16:52:13;62.95;;;24.60;;
77350;SDS011;66420;50.246;14.320;2023-02-15T16:55:04;47.00;;;18.90;;
77350;SDS011;66420;50.246;14.320;2023-02-15T16:57:50;54.38;;;24.02;;
77350;SDS011;66420;50.246;14.320;2023-02-15T17:00:40;49.45;;;21.67;;
77350;SDS011;66420;50.246;14.320;2023-02-15T17:03:25;72.88;;;26.50;;
77350;SDS011;66420;50.246;14.320;2023-02-15T17:06:23;72.55;;;28.40;;
77350;SDS011;66420;50.246;14.320;2023-02-15T17:09:14;51.78;;;21.33;;
77350;SDS011;66420;50.246;14.320;2023-02-15T17:12:08;70.22;;;24.45;;
77350;SDS011;66420;50.246;14.320;2023-02-15T17:14:54;69.30;;;24.73;;
77350;SDS011;66420;50.246;14.320;2023-02-15T17:17:39;73.22;;;26.45;;
77350;SDS011;66420;50.246;14.320;2023-02-15T17:20:25;66.13;;;24.38;;
77350;SDS011;66420;50.246;14.320;2023-02-15T17:26:15;63.30;;;22.48;;
77350;SDS011;66420;50.246;14.320;2023-02-15T17:32:23;77.15;;;29.75;;
77350;SDS011;66420;50.246;14.320;2023-02-15T17:35:29;89.85;;;29.95;;
77350;SDS011;66420;50.246;14.320;2023-02-15T17:38:19;80.28;;;30.10;;
77350;SDS011;66420;50.246;14.320;2023-02-15T17:41:04;115.07;;;40.72;;
77350;SDS011;66420;50.246;14.320;2023-02-15T17:43:49;93.68;;;34.70;;
77350;SDS011;66420;50.246;14.320;2023-02-15T17:46:35;128.90;;;43.55;;
77350;SDS011;66420;50.246;14.320;2023-02-15T17:49:25;110.20;;;38.45;;
77350;SDS011;66420;50.246;14.320;2023-02-15T17:52:18;94.90;;;33.88;;
77350;SDS011;66420;50.246;14.320;2023-02-15T17:55:07;94.28;;;34.50;;
77350;SDS011;66420;50.246;14.320;2023-02-15T17:58:16;87.88;;;30.00;;
77350;SDS011;66420;50.246;14.320;2023-02-15T18:01:04;86.53;;;29.20;;
77350;SDS011;66420;50.246;14.320;2023-02-15T18:07:15;71.15;;;24.90;;
77350;SDS011;66420;50.246;14.320;2023-02-15T18:10:20;69.60;;;25.35;;
77350;SDS011;66420;50.246;14.320;2023-02-15T18:13:25;66.85;;;23.40;;
77350;SDS011;66420;50.246;14.320;2023-02-15T18:16:12;72.57;;;25.23;;
77350;SDS011;66420;50.246;14.320;2023-02-15T18:18:58;64.32;;;24.40;;
77350;SDS011;66420;50.246;14.320;2023-02-15T18:21:44;70.78;;;26.15;;
77350;SDS011;66420;50.246;14.320;2023-02-15T18:24:29;76.30;;;27.02;;
77350;SDS011;66420;50.246;14.320;2023-02-15T18:27:14;106.22;;;37.28;;
77350;SDS011;66420;50.246;14.320;2023-02-15T18:29:59;82.85;;;30.98;;
77350;SDS011;66420;50.246;14.320;2023-02-15T18:32:44;114.68;;;38.85;;
77350;SDS011;66420;50.246;14.320;2023-02-15T18:35:31;103.35;;;37.88;;
77350;SDS011;66420;50.246;14.320;2023-02-15T18:38:16;109.40;;;39.40;;
77350;SDS011;66420;50.246;14.320;2023-02-15T18:41:01;105.95;;;37.35;;
77350;SDS011;66420;50.246;14.320;2023-02-15T18:43:47;106.30;;;36.15;;
77350;SDS011;66420;50.246;14.320;2023-02-15T18:46:32;85.70;;;31.00;;
77350;SDS011;66420;50.246;14.320;2023-02-15T18:49:17;76.00;;;26.63;;
77350;SDS011;66420;50.246;14.320;2023-02-15T18:52:02;85.30;;;30.52;;
77350;SDS011;66420;50.246;14.320;2023-02-15T18:54:47;272.80;;;71.45;;
77350;SDS011;66420;50.246;14.320;2023-02-15T18:57:36;447.17;;;117.72;;
77350;SDS011;66420;50.246;14.320;2023-02-15T19:00:25;211.05;;;61.35;;
77350;SDS011;66420;50.246;14.320;2023-02-15T19:03:17;96.43;;;31.90;;
77350;SDS011;66420;50.246;14.320;2023-02-15T19:06:02;80.68;;;29.75;;
77350;SDS011;66420;50.246;14.320;2023-02-15T19:08:50;105.50;;;34.80;;
77350;SDS011;66420;50.246;14.320;2023-02-15T19:11:35;102.28;;;35.85;;
77350;SDS011;66420;50.246;14.320;2023-02-15T19:14:24;98.20;;;34.38;;
77350;SDS011;66420;50.246;14.320;2023-02-15T19:17:17;72.28;;;26.95;;
77350;SDS011;66420;50.246;14.320;2023-02-15T19:20:04;74.50;;;25.98;;
77350;SDS011;66420;50.246;14.320;2023-02-15T19:22:49;66.03;;;24.02;;
77350;SDS011;66420;50.246;14.320;2023-02-15T19:25:36;84.53;;;30.30;;
77350;SDS011;66420;50.246;14.320;2023-02-15T19:28:28;109.32;;;37.53;;
77350;SDS011;66420;50.246;14.320;2023-02-15T19:31:15;105.00;;;34.78;;